Time;durP1;ratioP1;P1;durP2;ratioP2;P2;SDS_P1;SDS_P2;PMS_P1;PMS_P2;Temp;Humidity;BMP_temperature;BMP_pressure;BME280_temperature;BME280_humidity;BME280_pressure;Samples;Min_cycle;Max_cycle;Signal;HPM_P1;HPM_P2
2022/07/14 00:01:21;;;;;;;4.20;3.90;;;;;;;;;;5013312;28;20417;-46
2022/07/14 00:03:47;;;;;;;6.50;4.43;;;;;;;;;;5013851;28;20524;-47
2022/07/14 00:06:13;;;;;;;6.93;4.60;;;;;;;;;;5010783;28;20963;-46
2022/07/14 00:08:39;;;;;;;4.53;4.17;;;;;;;;;;5013613;28;20942;-47
2022/07/14 00:11:06;;;;;;;5.70;3.97;;;;;;;;;;5001991;28;20545;-47
2022/07/14 00:13:32;;;;;;;5.93;4.57;;;;;;;;;;4994402;28;20404;-47
2022/07/14 00:15:58;;;;;;;4.37;3.63;;;;;;;;;;4994762;28;20439;-46
2022/07/14 00:18:24;;;;;;;6.47;4.57;;;;;;;;;;4994616;28;20902;-46
2022/07/14 00:20:50;;;;;;;4.50;4.10;;;;;;;;;;4994182;28;20404;-47
2022/07/14 00:23:16;;;;;;;6.17;4.37;;;;;;;;;;4994477;28;20464;-48
2022/07/14 00:25:42;;;;;;;7.90;4.60;;;;;;;;;;4994438;28;20418;-48
2022/07/14 00:28:08;;;;;;;7.90;4.60;;;;;;;;;;4993477;28;20467;-46
2022/07/14 00:30:34;;;;;;;4.50;4.10;;;;;;;;;;4993551;28;20411;-49
2022/07/14 00:33:00;;;;;;;6.67;3.90;;;;;;;;;;5000059;28;20508;-50
2022/07/14 00:35:26;;;;;;;6.90;4.60;;;;;;;;;;5013640;28;20480;-47
2022/07/14 00:37:52;;;;;;;7.53;4.43;;;;;;;;;;5013417;28;20454;-48
2022/07/14 00:40:18;;;;;;;7.10;4.07;;;;;;;;;;5013297;28;20396;-46
2022/07/14 00:42:49;;;;;;;6.13;3.67;;;;;;;;;;5013365;28;20407;-47
2022/07/14 00:45:19;;;;;;;4.10;3.80;;;;;;;;;;5001220;28;20864;-48
2022/07/14 00:47:46;;;;;;;5.00;4.17;;;;;;;;;;5013252;28;20403;-46
2022/07/14 00:50:13;;;;;;;5.20;3.57;;;;;;;;;;5013105;28;20905;-47
2022/07/14 00:52:40;;;;;;;13.70;4.73;;;;;;;;;;5010866;28;20447;-47
2022/07/14 00:55:06;;;;;;;15.23;4.13;;;;;;;;;;5013353;28;20407;-51
2022/07/14 00:57:32;;;;;;;5.30;3.60;;;;;;;;;;5013087;28;20942;-50
2022/07/14 00:59:58;;;;;;;6.20;3.93;;;;;;;;;;5011269;28;20425;-51
2022/07/14 01:02:24;;;;;;;5.43;3.30;;;;;;;;;;5001725;28;20445;-51
2022/07/14 01:04:50;;;;;;;4.00;3.37;;;;;;;;;;5002256;28;20433;-47
2022/07/14 01:07:18;;;;;;;9.47;3.40;;;;;;;;;;5011901;28;20445;-49
2022/07/14 01:09:44;;;;;;;4.60;3.57;;;;;;;;;;5012571;28;20427;-48
2022/07/14 01:12:11;;;;;;;8.50;4.43;;;;;;;;;;5012848;28;20376;-49
2022/07/14 01:14:38;;;;;;;6.30;4.00;;;;;;;;;;5013189;28;20424;-49
2022/07/14 01:17:05;;;;;;;12.17;5.17;;;;;;;;;;5012983;28;20406;-49
2022/07/14 01:19:32;;;;;;;8.10;3.50;;;;;;;;;;5012963;28;20566;-49
2022/07/14 01:21:58;;;;;;;12.57;4.17;;;;;;;;;;5012475;28;20384;-48
2022/07/14 01:24:24;;;;;;;7.53;4.80;;;;;;;;;;5012736;28;20459;-47
2022/07/14 01:26:50;;;;;;;9.17;4.67;;;;;;;;;;5012897;28;20432;-49
2022/07/14 01:29:16;;;;;;;4.83;3.57;;;;;;;;;;5012961;28;20986;-47
2022/07/14 01:31:43;;;;;;;6.13;4.27;;;;;;;;;;5013128;28;20983;-49
2022/07/14 01:34:09;;;;;;;8.43;3.93;;;;;;;;;;5012476;28;20386;-48
2022/07/14 01:36:35;;;;;;;20.60;4.03;;;;;;;;;;5012568;28;20621;-47
2022/07/14 01:39:01;;;;;;;9.10;3.70;;;;;;;;;;5012414;28;20940;-48
2022/07/14 01:41:28;;;;;;;7.00;4.00;;;;;;;;;;5011597;28;20380;-49
2022/07/14 01:43:54;;;;;;;6.13;3.70;;;;;;;;;;5012600;28;20415;-48
2022/07/14 01:46:21;;;;;;;4.43;2.97;;;;;;;;;;5012508;28;20385;-46
2022/07/14 01:48:47;;;;;;;6.00;3.67;;;;;;;;;;5012176;28;20601;-46
2022/07/14 01:51:13;;;;;;;5.97;3.77;;;;;;;;;;5012719;28;20469;-46
2022/07/14 01:53:40;;;;;;;3.50;3.03;;;;;;;;;;5012441;28;20383;-46
2022/07/14 01:56:06;;;;;;;8.70;3.50;;;;;;;;;;5012540;28;20456;-48
2022/07/14 01:58:32;;;;;;;8.53;3.40;;;;;;;;;;5012345;28;20917;-46
2022/07/14 02:03:44;;;;;;;13.77;4.43;;;;;;;;;;5012372;28;20900;-47
2022/07/14 02:06:11;;;;;;;5.70;3.60;;;;;;;;;;5012309;28;21000;-47
2022/07/14 02:08:36;;;;;;;13.13;3.87;;;;;;;;;;5012073;28;20438;-46
2022/07/14 02:13:47;;;;;;;9.13;3.00;;;;;;;;;;5011684;28;20398;-47
2022/07/14 02:16:13;;;;;;;12.93;3.60;;;;;;;;;;5012032;28;20363;-47
2022/07/14 02:18:39;;;;;;;6.17;3.53;;;;;;;;;;5012035;28;20404;-47
2022/07/14 02:21:05;;;;;;;5.40;3.30;;;;;;;;;;5011361;28;20470;-46
2022/07/14 02:23:31;;;;;;;6.90;3.03;;;;;;;;;;5010955;28;20412;-47
2022/07/14 02:25:57;;;;;;;6.83;3.50;;;;;;;;;;5012022;28;20408;-46
2022/07/14 02:28:23;;;;;;;11.03;3.40;;;;;;;;;;5011893;28;20550;-48
2022/07/14 02:30:49;;;;;;;5.70;3.30;;;;;;;;;;5011644;28;20467;-47
2022/07/14 02:33:15;;;;;;;8.10;3.03;;;;;;;;;;5011090;28;20427;-50
2022/07/14 02:35:41;;;;;;;8.50;3.47;;;;;;;;;;5011932;28;20383;-49
2022/07/14 02:38:07;;;;;;;5.00;3.30;;;;;;;;;;5011835;28;20419;-46
2022/07/14 02:40:33;;;;;;;9.53;3.87;;;;;;;;;;5011640;28;20375;-47
2022/07/14 02:43:00;;;;;;;12.23;5.17;;;;;;;;;;5012424;28;20378;-46
2022/07/14 02:45:26;;;;;;;6.60;3.50;;;;;;;;;;5011936;28;20479;-46
2022/07/14 02:47:52;;;;;;;8.60;3.30;;;;;;;;;;5011429;28;20776;-46
2022/07/14 02:50:17;;;;;;;11.23;3.40;;;;;;;;;;5010932;28;20433;-46
2022/07/14 02:52:43;;;;;;;8.77;3.23;;;;;;;;;;5014178;28;20878;-47
2022/07/14 02:55:10;;;;;;;8.53;4.27;;;;;;;;;;5015700;28;20392;-46
2022/07/14 02:57:36;;;;;;;8.03;3.83;;;;;;;;;;5015553;28;20807;-46
2022/07/14 03:00:04;;;;;;;7.03;3.70;;;;;;;;;;5015444;28;20378;-46
2022/07/14 03:02:30;;;;;;;8.60;3.13;;;;;;;;;;5015443;28;20420;-46
2022/07/14 03:04:56;;;;;;;10.30;3.53;;;;;;;;;;5015424;28;20516;-46
2022/07/14 03:07:22;;;;;;;12.00;4.00;;;;;;;;;;5015438;28;20422;-50
2022/07/14 03:09:48;;;;;;;16.43;3.87;;;;;;;;;;5015025;28;20460;-50
2022/07/14 03:12:14;;;;;;;10.67;4.07;;;;;;;;;;5015187;28;20374;-46
2022/07/14 03:14:39;;;;;;;4.90;3.20;;;;;;;;;;5015255;28;20433;-46
2022/07/14 03:17:06;;;;;;;12.63;3.43;;;;;;;;;;5014968;28;20478;-49
2022/07/14 03:19:32;;;;;;;8.07;3.27;;;;;;;;;;5015163;28;20378;-49
2022/07/14 03:21:59;;;;;;;6.40;3.23;;;;;;;;;;5015013;28;20761;-46
2022/07/14 03:24:25;;;;;;;8.20;3.53;;;;;;;;;;5015197;28;20400;-46
2022/07/14 03:26:50;;;;;;;10.77;3.30;;;;;;;;;;5015071;28;20461;-46
2022/07/14 03:29:16;;;;;;;13.70;3.63;;;;;;;;;;5014369;28;20476;-46
2022/07/14 03:31:42;;;;;;;14.37;3.97;;;;;;;;;;5014288;28;20459;-46
2022/07/14 03:34:09;;;;;;;12.87;3.43;;;;;;;;;;5014809;28;20845;-46
2022/07/14 03:36:35;;;;;;;11.47;3.63;;;;;;;;;;5015031;28;20378;-46
2022/07/14 03:39:01;;;;;;;5.40;2.97;;;;;;;;;;5014823;28;20510;-46
2022/07/14 03:41:27;;;;;;;7.00;2.93;;;;;;;;;;5014316;28;20447;-46
2022/07/14 03:43:53;;;;;;;14.43;3.70;;;;;;;;;;5014670;28;20409;-48
2022/07/14 03:46:19;;;;;;;9.53;3.57;;;;;;;;;;5014484;28;20377;-47
2022/07/14 03:48:45;;;;;;;12.97;3.97;;;;;;;;;;5014531;28;20470;-47
2022/07/14 03:51:11;;;;;;;14.27;4.30;;;;;;;;;;5014320;28;20503;-50
2022/07/14 03:53:36;;;;;;;12.13;3.53;;;;;;;;;;5014531;28;20403;-47
2022/07/14 03:56:04;;;;;;;10.43;3.67;;;;;;;;;;5014563;28;20390;-46
2022/07/14 03:58:30;;;;;;;14.90;4.73;;;;;;;;;;5014095;28;20402;-46
2022/07/14 04:00:56;;;;;;;10.03;3.50;;;;;;;;;;5014131;28;20389;-48
2022/07/14 04:03:22;;;;;;;7.10;3.10;;;;;;;;;;5013357;28;20401;-47
2022/07/14 04:05:48;;;;;;;8.90;3.83;;;;;;;;;;5014318;28;20399;-47
2022/07/14 04:08:14;;;;;;;13.47;3.20;;;;;;;;;;5014242;28;20503;-48
2022/07/14 04:10:40;;;;;;;8.53;4.30;;;;;;;;;;5014088;28;20379;-50
2022/07/14 04:13:06;;;;;;;5.37;3.40;;;;;;;;;;5014336;28;20402;-49
2022/07/14 04:15:32;;;;;;;7.57;4.27;;;;;;;;;;5014137;28;20387;-49
2022/07/14 04:17:59;;;;;;;11.77;3.93;;;;;;;;;;5012984;28;20435;-46
2022/07/14 04:20:25;;;;;;;7.23;3.97;;;;;;;;;;5013804;28;20403;-47
2022/07/14 04:22:51;;;;;;;10.87;3.70;;;;;;;;;;5014039;28;20382;-48
2022/07/14 04:25:18;;;;;;;9.03;3.80;;;;;;;;;;5014058;28;20399;-47
2022/07/14 04:27:44;;;;;;;7.27;3.60;;;;;;;;;;5013484;28;20449;-47
2022/07/14 04:30:11;;;;;;;13.00;3.63;;;;;;;;;;5013595;28;20393;-51
2022/07/14 04:32:37;;;;;;;10.20;3.30;;;;;;;;;;5013833;28;20403;-46
2022/07/14 04:35:04;;;;;;;11.90;4.27;;;;;;;;;;5013839;28;20466;-46
2022/07/14 04:37:30;;;;;;;12.43;4.30;;;;;;;;;;5013571;28;20441;-49
2022/07/14 04:39:56;;;;;;;8.93;3.60;;;;;;;;;;5013415;28;20492;-46
2022/07/14 04:42:22;;;;;;;7.37;3.50;;;;;;;;;;5013548;28;20912;-47
2022/07/14 04:44:48;;;;;;;8.93;3.67;;;;;;;;;;5013712;28;20430;-47
2022/07/14 04:47:14;;;;;;;16.20;4.87;;;;;;;;;;5013453;28;20427;-46
2022/07/14 04:52:25;;;;;;;13.10;4.00;;;;;;;;;;5013619;28;20430;-47
2022/07/14 04:54:51;;;;;;;16.77;4.93;;;;;;;;;;5013128;28;20377;-46
2022/07/14 04:57:18;;;;;;;12.80;4.17;;;;;;;;;;5013334;28;20425;-46
2022/07/14 04:59:45;;;;;;;9.73;4.53;;;;;;;;;;5013493;28;20922;-49
2022/07/14 05:02:11;;;;;;;14.00;4.43;;;;;;;;;;5013194;28;20436;-47
2022/07/14 05:04:37;;;;;;;11.67;4.03;;;;;;;;;;5013339;28;20381;-46
2022/07/14 05:07:03;;;;;;;8.33;3.30;;;;;;;;;;5013151;28;20854;-48
2022/07/14 05:09:33;;;;;;;10.40;3.80;;;;;;;;;;5012869;28;20434;-46
2022/07/14 05:12:00;;;;;;;11.60;3.97;;;;;;;;;;5012940;28;20387;-47
2022/07/14 05:14:26;;;;;;;8.97;3.70;;;;;;;;;;5012923;28;20787;-46
2022/07/14 05:16:52;;;;;;;9.10;3.43;;;;;;;;;;5012580;28;20466;-46
2022/07/14 05:19:18;;;;;;;11.17;4.10;;;;;;;;;;5012798;28;20375;-46
2022/07/14 05:21:44;;;;;;;13.43;4.47;;;;;;;;;;5012465;28;20400;-47
2022/07/14 05:24:11;;;;;;;9.67;3.90;;;;;;;;;;5012969;28;20497;-47
2022/07/14 05:26:37;;;;;;;8.30;3.67;;;;;;;;;;5013140;28;20409;-46
2022/07/14 05:29:03;;;;;;;21.33;5.27;;;;;;;;;;5012707;28;20598;-46
2022/07/14 05:31:29;;;;;;;11.17;4.00;;;;;;;;;;5012637;28;20485;-46
2022/07/14 05:33:56;;;;;;;9.40;3.50;;;;;;;;;;5012221;28;20939;-46
2022/07/14 05:36:22;;;;;;;11.17;3.67;;;;;;;;;;5012224;28;20438;-47
2022/07/14 05:38:49;;;;;;;11.67;3.87;;;;;;;;;;5012604;28;20424;-48
2022/07/14 05:41:15;;;;;;;10.00;4.00;;;;;;;;;;5012293;28;20790;-47
2022/07/14 05:43:41;;;;;;;14.30;4.30;;;;;;;;;;5012583;28;20909;-48
2022/07/14 05:46:08;;;;;;;10.90;4.57;;;;;;;;;;5012398;28;20377;-47
2022/07/14 05:48:35;;;;;;;13.37;4.33;;;;;;;;;;5012385;28;20435;-47
2022/07/14 05:51:08;;;;;;;12.20;4.70;;;;;;;;;;5011804;28;20525;-46
2022/07/14 05:53:35;;;;;;;11.53;4.13;;;;;;;;;;5011692;28;20651;-46
2022/07/14 05:56:02;;;;;;;11.77;3.90;;;;;;;;;;5012470;28;20437;-46
2022/07/14 05:58:28;;;;;;;15.00;5.80;;;;;;;;;;5011402;28;20449;-46
2022/07/14 06:00:54;;;;;;;17.67;4.87;;;;;;;;;;5012053;28;20410;-48
2022/07/14 06:03:20;;;;;;;7.03;3.90;;;;;;;;;;5011283;28;20920;-50
2022/07/14 06:05:46;;;;;;;6.00;3.23;;;;;;;;;;5011768;28;20425;-46
2022/07/14 06:08:12;;;;;;;15.27;4.53;;;;;;;;;;5012147;28;20552;-46
2022/07/14 06:10:38;;;;;;;6.87;3.60;;;;;;;;;;5011927;28;20397;-49
2022/07/14 06:13:04;;;;;;;11.20;3.50;;;;;;;;;;5012071;28;20596;-46
2022/07/14 06:15:31;;;;;;;7.33;3.90;;;;;;;;;;5012187;28;20413;-47
2022/07/14 06:17:57;;;;;;;12.37;4.33;;;;;;;;;;5011524;28;20420;-46
2022/07/14 06:20:23;;;;;;;12.53;4.07;;;;;;;;;;5011779;28;20386;-46
2022/07/14 06:22:49;;;;;;;13.10;4.60;;;;;;;;;;5012259;28;20408;-48
2022/07/14 06:25:16;;;;;;;13.07;3.37;;;;;;;;;;5012243;28;20400;-46
2022/07/14 06:27:42;;;;;;;10.37;4.00;;;;;;;;;;5016715;28;20435;-46
2022/07/14 06:30:08;;;;;;;10.50;3.80;;;;;;;;;;5018264;28;20477;-46
2022/07/14 06:32:34;;;;;;;16.00;3.73;;;;;;;;;;5018115;28;20921;-47
2022/07/14 06:35:00;;;;;;;17.77;3.77;;;;;;;;;;5018573;28;20420;-48
2022/07/14 06:37:26;;;;;;;14.50;3.50;;;;;;;;;;5018147;28;20421;-50
2022/07/14 06:39:52;;;;;;;7.63;3.67;;;;;;;;;;5018640;28;20418;-47
2022/07/14 06:42:19;;;;;;;10.50;3.50;;;;;;;;;;5018348;28;20927;-47
2022/07/14 06:44:45;;;;;;;7.03;3.60;;;;;;;;;;5018238;28;20500;-47
2022/07/14 06:47:12;;;;;;;8.50;3.70;;;;;;;;;;5018232;28;20508;-46
2022/07/14 06:49:38;;;;;;;10.87;2.97;;;;;;;;;;5018319;28;20450;-48
2022/07/14 06:52:05;;;;;;;8.93;4.20;;;;;;;;;;5018137;28;20421;-48
2022/07/14 06:54:31;;;;;;;8.07;3.27;;;;;;;;;;5018503;28;20395;-47
2022/07/14 06:56:57;;;;;;;7.57;2.90;;;;;;;;;;5017688;28;20415;-47
2022/07/14 06:59:23;;;;;;;7.73;3.50;;;;;;;;;;5018719;28;20420;-48
2022/07/14 07:01:49;;;;;;;13.27;3.80;;;;;;;;;;5018075;28;20408;-47
2022/07/14 07:04:15;;;;;;;6.83;3.30;;;;;;;;;;5018363;28;20403;-46
2022/07/14 07:06:44;;;;;;;9.17;2.60;;;;;;;;;;5018326;28;20955;-47
2022/07/14 07:09:10;;;;;;;7.10;2.40;;;;;;;;;;5017753;28;20450;-46
2022/07/14 07:11:36;;;;;;;9.80;2.63;;;;;;;;;;5018346;28;20856;-46
2022/07/14 07:14:03;;;;;;;9.70;3.57;;;;;;;;;;5018169;28;20493;-47
2022/07/14 07:16:29;;;;;;;9.23;2.90;;;;;;;;;;5017903;28;20417;-47
2022/07/14 07:18:55;;;;;;;9.07;3.60;;;;;;;;;;5018193;28;20430;-46
2022/07/14 07:21:21;;;;;;;7.63;3.10;;;;;;;;;;5017423;28;20403;-46
2022/07/14 07:23:48;;;;;;;9.33;3.27;;;;;;;;;;5018065;28;20450;-48
2022/07/14 07:26:14;;;;;;;7.03;2.83;;;;;;;;;;5018000;28;20425;-46
2022/07/14 07:28:40;;;;;;;8.77;3.10;;;;;;;;;;5017953;28;20501;-48
2022/07/14 07:31:06;;;;;;;9.47;3.13;;;;;;;;;;5018477;28;20402;-49
2022/07/14 07:33:35;;;;;;;8.80;3.70;;;;;;;;;;5018293;28;20990;-49
2022/07/14 07:36:01;;;;;;;6.07;2.80;;;;;;;;;;5017354;28;20399;-49
2022/07/14 07:38:27;;;;;;;6.97;3.03;;;;;;;;;;5015671;28;20457;-49
2022/07/14 07:40:53;;;;;;;7.17;2.90;;;;;;;;;;4998043;28;20904;-49
2022/07/14 07:43:21;;;;;;;12.27;3.53;;;;;;;;;;4995236;28;20879;-49
2022/07/14 07:45:47;;;;;;;5.47;2.63;;;;;;;;;;4995176;28;20814;-48
2022/07/14 07:48:13;;;;;;;6.23;3.10;;;;;;;;;;4994582;28;20877;-49
2022/07/14 07:50:41;;;;;;;8.17;3.40;;;;;;;;;;4994896;28;20442;-49
2022/07/14 07:53:07;;;;;;;5.10;3.17;;;;;;;;;;5009495;28;20422;-48
2022/07/14 07:55:33;;;;;;;12.33;4.13;;;;;;;;;;5015001;28;20410;-49
2022/07/14 07:57:59;;;;;;;8.10;3.20;;;;;;;;;;5014431;28;20433;-48
2022/07/14 08:00:26;;;;;;;14.47;4.30;;;;;;;;;;5014252;28;20403;-48
2022/07/14 08:02:53;;;;;;;9.93;3.70;;;;;;;;;;5014493;28;20410;-48
2022/07/14 08:05:19;;;;;;;9.83;3.30;;;;;;;;;;5014220;28;20399;-48
2022/07/14 08:07:45;;;;;;;7.33;3.03;;;;;;;;;;5014307;28;20501;-49
2022/07/14 08:10:11;;;;;;;10.67;3.33;;;;;;;;;;5013941;28;20497;-49
2022/07/14 08:12:38;;;;;;;4.37;3.40;;;;;;;;;;5014201;28;20815;-49
2022/07/14 08:15:04;;;;;;;5.90;3.27;;;;;;;;;;5013193;28;20746;-49
2022/07/14 08:17:30;;;;;;;13.73;3.47;;;;;;;;;;5014278;28;20426;-49
2022/07/14 08:19:56;;;;;;;13.40;3.83;;;;;;;;;;5012736;28;20433;-50
2022/07/14 08:22:26;;;;;;;6.10;2.90;;;;;;;;;;5013890;28;20431;-49
2022/07/14 08:24:52;;;;;;;3.70;2.80;;;;;;;;;;5007254;28;20502;-49
2022/07/14 08:27:18;;;;;;;6.77;3.33;;;;;;;;;;5013693;28;20927;-49
2022/07/14 08:29:44;;;;;;;5.97;3.00;;;;;;;;;;5012579;28;20470;-50
2022/07/14 08:32:10;;;;;;;4.10;2.43;;;;;;;;;;5013647;28;20403;-49
2022/07/14 08:34:37;;;;;;;7.47;2.67;;;;;;;;;;5009650;28;20420;-49
2022/07/14 08:37:05;;;;;;;5.73;2.60;;;;;;;;;;5006149;28;20419;-49
2022/07/14 08:39:31;;;;;;;7.03;2.73;;;;;;;;;;5007473;28;20818;-49
2022/07/14 08:42:01;;;;;;;6.20;2.30;;;;;;;;;;5004013;28;20429;-50
2022/07/14 08:44:28;;;;;;;7.20;2.27;;;;;;;;;;5004278;28;20764;-50
2022/07/14 08:46:55;;;;;;;5.47;2.17;;;;;;;;;;5002653;28;20412;-50
2022/07/14 08:49:21;;;;;;;3.83;2.20;;;;;;;;;;4997731;28;20505;-49
2022/07/14 08:51:49;;;;;;;3.43;1.80;;;;;;;;;;5009490;28;20426;-50
2022/07/14 08:54:15;;;;;;;3.47;1.90;;;;;;;;;;5009638;28;20407;-49
2022/07/14 08:56:41;;;;;;;7.97;2.33;;;;;;;;;;5013257;28;20407;-50
2022/07/14 08:59:08;;;;;;;4.37;2.23;;;;;;;;;;5011652;28;20942;-49
2022/07/14 09:01:34;;;;;;;5.63;2.03;;;;;;;;;;5011772;28;20426;-50
2022/07/14 09:04:01;;;;;;;5.90;2.27;;;;;;;;;;5008826;28;20453;-49
2022/07/14 09:06:46;;;;;;;4.90;2.40;;;;;;;;;;5005054;28;20495;-50
2022/07/14 09:09:17;;;;;;;4.73;2.60;;;;;;;;;;5001956;28;20466;-49
2022/07/14 09:11:53;;;;;;;5.80;2.57;;;;;;;;;;5003780;28;20443;-50
2022/07/14 09:14:19;;;;;;;3.40;2.50;;;;;;;;;;5010459;28;20446;-49
2022/07/14 09:16:45;;;;;;;5.63;2.70;;;;;;;;;;5013015;28;20403;-50
2022/07/14 09:19:13;;;;;;;5.47;2.53;;;;;;;;;;5012625;28;20423;-50
2022/07/14 09:21:40;;;;;;;11.80;2.93;;;;;;;;;;5012734;28;20407;-50
2022/07/14 09:24:06;;;;;;;5.50;2.40;;;;;;;;;;5012634;28;20413;-50
2022/07/14 09:26:33;;;;;;;5.13;2.67;;;;;;;;;;5006638;28;20487;-50
2022/07/14 09:29:00;;;;;;;4.47;2.90;;;;;;;;;;4992486;28;20494;-49
2022/07/14 09:31:26;;;;;;;4.37;2.50;;;;;;;;;;4998736;28;20941;-50
2022/07/14 09:33:59;;;;;;;6.80;2.80;;;;;;;;;;5000951;28;20396;-50
2022/07/14 09:36:32;;;;;;;7.80;2.30;;;;;;;;;;5002411;28;20911;-50
2022/07/14 09:39:00;;;;;;;32.80;5.13;;;;;;;;;;5000294;28;20451;-50
2022/07/14 09:41:26;;;;;;;11.93;2.60;;;;;;;;;;5006208;28;20419;-50
2022/07/14 09:44:11;;;;;;;3.03;1.80;;;;;;;;;;5010578;28;20848;-50
2022/07/14 09:46:47;;;;;;;5.57;2.47;;;;;;;;;;5001502;28;20400;-50
2022/07/14 09:49:14;;;;;;;5.37;2.90;;;;;;;;;;5001427;28;20835;-50
2022/07/14 09:51:55;;;;;;;5.67;2.43;;;;;;;;;;5003763;28;20870;-49
2022/07/14 09:54:40;;;;;;;12.30;2.53;;;;;;;;;;5004815;28;20918;-50
2022/07/14 09:57:18;;;;;;;4.83;2.53;;;;;;;;;;5000409;28;20419;-50
2022/07/14 09:59:49;;;;;;;4.90;2.50;;;;;;;;;;5010362;28;20422;-50
2022/07/14 10:02:21;;;;;;;3.30;1.77;;;;;;;;;;5010791;28;20849;-50
2022/07/14 10:04:47;;;;;;;3.87;1.17;;;;;;;;;;5010795;28;20792;-49
2022/07/14 10:07:15;;;;;;;2.70;1.37;;;;;;;;;;5011820;28;20957;-50
2022/07/14 10:09:46;;;;;;;2.00;1.10;;;;;;;;;;5012077;28;20485;-50
2022/07/14 10:12:12;;;;;;;4.73;1.50;;;;;;;;;;5011431;28;20409;-51
2022/07/14 10:14:40;;;;;;;2.60;1.20;;;;;;;;;;5011752;28;20426;-50
2022/07/14 10:17:06;;;;;;;1.73;1.00;;;;;;;;;;5011885;28;20967;-49
2022/07/14 10:19:32;;;;;;;1.50;1.30;;;;;;;;;;5011929;28;20481;-50
2022/07/14 10:22:00;;;;;;;4.47;1.33;;;;;;;;;;5011665;28;20826;-49
2022/07/14 10:24:26;;;;;;;5.33;1.20;;;;;;;;;;5011765;28;20415;-50
2022/07/14 10:26:53;;;;;;;1.97;0.97;;;;;;;;;;5011695;28;20427;-50
2022/07/14 10:29:19;;;;;;;2.50;1.33;;;;;;;;;;5011178;28;21005;-50
2022/07/14 10:32:12;;;;;;;1.97;1.00;;;;;;;;;;5011517;28;20419;-50
2022/07/14 10:34:47;;;;;;;4.00;1.30;;;;;;;;;;5009762;28;20427;-50
2022/07/14 10:37:28;;;;;;;3.40;1.20;;;;;;;;;;5011321;28;20435;-50
2022/07/14 10:40:13;;;;;;;2.63;1.20;;;;;;;;;;4998390;28;20458;-50
2022/07/14 10:42:44;;;;;;;4.80;1.20;;;;;;;;;;5011437;28;20414;-50
2022/07/14 10:45:10;;;;;;;2.40;1.20;;;;;;;;;;5011293;28;20457;-49
2022/07/14 10:47:53;;;;;;;2.67;1.63;;;;;;;;;;5011714;28;20884;-50
2022/07/14 10:50:23;;;;;;;2.20;1.47;;;;;;;;;;5010961;28;20601;-49
2022/07/14 10:52:55;;;;;;;3.73;1.27;;;;;;;;;;5011487;28;20419;-50
2022/07/14 10:55:22;;;;;;;3.30;1.27;;;;;;;;;;5011340;28;20446;-49
2022/07/14 10:58:00;;;;;;;2.17;1.00;;;;;;;;;;5011525;28;20446;-50
2022/07/14 11:00:44;;;;;;;2.17;1.37;;;;;;;;;;5010776;28;20437;-50
2022/07/14 11:03:33;;;;;;;3.53;1.20;;;;;;;;;;5011265;28;20429;-49
2022/07/14 11:06:03;;;;;;;2.40;1.20;;;;;;;;;;5010872;28;20485;-50
2022/07/14 11:08:29;;;;;;;3.07;1.30;;;;;;;;;;5011275;28;20458;-51
2022/07/14 11:10:56;;;;;;;2.03;1.10;;;;;;;;;;5010992;28;20455;-50
2022/07/14 11:13:22;;;;;;;1.50;1.10;;;;;;;;;;5012878;28;20433;-49
2022/07/14 11:15:59;;;;;;;1.33;1.10;;;;;;;;;;5015036;28;20419;-50
2022/07/14 11:18:30;;;;;;;2.40;1.17;;;;;;;;;;5014779;28;20419;-49
2022/07/14 11:21:07;;;;;;;2.40;1.20;;;;;;;;;;5008053;28;20469;-49
2022/07/14 11:23:34;;;;;;;3.40;1.40;;;;;;;;;;5014760;28;20466;-50
2022/07/14 11:26:02;;;;;;;2.60;1.30;;;;;;;;;;5014910;28;20409;-50
2022/07/14 11:28:31;;;;;;;3.40;1.30;;;;;;;;;;4999483;28;20455;-49
2022/07/14 11:31:16;;;;;;;5.57;1.07;;;;;;;;;;5014436;28;20461;-49
2022/07/14 11:36:38;;;;;;;3.27;1.37;;;;;;;;;;4991690;28;20403;-49
2022/07/14 11:39:17;;;;;;;1.50;1.10;;;;;;;;;;5013885;28;20544;-50
2022/07/14 11:42:08;;;;;;;1.30;1.20;;;;;;;;;;5014445;28;20895;-50
2022/07/14 11:44:41;;;;;;;2.40;1.40;;;;;;;;;;5014663;28;20887;-50
2022/07/14 11:47:29;;;;;;;3.00;1.10;;;;;;;;;;5014479;28;20449;-49
2022/07/14 11:49:59;;;;;;;2.30;1.30;;;;;;;;;;5013283;28;20461;-50
2022/07/14 11:52:27;;;;;;;3.37;1.17;;;;;;;;;;5014471;28;20407;-50
2022/07/14 11:54:54;;;;;;;1.73;0.90;;;;;;;;;;5014454;28;20779;-49
2022/07/14 11:57:21;;;;;;;2.53;1.30;;;;;;;;;;5014239;28;20870;-50
2022/07/14 11:59:47;;;;;;;2.00;1.20;;;;;;;;;;5014013;28;20438;-49
2022/07/14 12:02:14;;;;;;;1.57;1.23;;;;;;;;;;5014015;28;20423;-49
2022/07/14 12:04:52;;;;;;;3.53;1.20;;;;;;;;;;5013865;28;20415;-49
2022/07/14 12:07:19;;;;;;;4.17;1.60;;;;;;;;;;5013830;28;20438;-51
2022/07/14 12:09:45;;;;;;;1.50;1.10;;;;;;;;;;5013983;28;20546;-50
2022/07/14 12:12:11;;;;;;;2.60;1.10;;;;;;;;;;5014127;28;20419;-49
2022/07/14 12:14:49;;;;;;;3.03;1.10;;;;;;;;;;5014096;28;20411;-50
2022/07/14 12:17:15;;;;;;;2.70;1.30;;;;;;;;;;5013767;28;20443;-50
2022/07/14 12:19:41;;;;;;;2.23;1.50;;;;;;;;;;5013687;28;20415;-49
2022/07/14 12:22:07;;;;;;;3.30;1.50;;;;;;;;;;5011929;28;20419;-50
2022/07/14 12:24:33;;;;;;;1.83;1.30;;;;;;;;;;5012719;28;20419;-50
2022/07/14 12:27:06;;;;;;;1.63;1.07;;;;;;;;;;5013845;28;20403;-49
2022/07/14 12:29:33;;;;;;;2.10;1.30;;;;;;;;;;5007990;28;20473;-50
2022/07/14 12:32:00;;;;;;;4.23;1.37;;;;;;;;;;5003999;28;20562;-50
2022/07/14 12:34:27;;;;;;;1.33;1.23;;;;;;;;;;5012323;28;20410;-50
2022/07/14 12:36:56;;;;;;;1.83;1.73;;;;;;;;;;5005990;28;20951;-50
2022/07/14 12:39:22;;;;;;;2.13;1.40;;;;;;;;;;5006285;28;20818;-50
2022/07/14 12:41:48;;;;;;;3.53;1.47;;;;;;;;;;5012618;28;20458;-50
2022/07/14 12:44:14;;;;;;;1.83;1.27;;;;;;;;;;5013020;28;20410;-50
2022/07/14 12:46:40;;;;;;;2.50;1.67;;;;;;;;;;5013474;28;20422;-50
2022/07/14 12:49:08;;;;;;;2.33;1.20;;;;;;;;;;5013358;28;20538;-49
2022/07/14 12:51:37;;;;;;;2.30;1.83;;;;;;;;;;5013344;28;20457;-49
2022/07/14 12:54:03;;;;;;;2.00;1.30;;;;;;;;;;5013422;28;20391;-50
2022/07/14 12:56:33;;;;;;;5.83;1.20;;;;;;;;;;5013431;28;20403;-49
2022/07/14 12:59:00;;;;;;;2.43;1.30;;;;;;;;;;5012951;28;20462;-49
2022/07/14 13:01:28;;;;;;;3.27;1.40;;;;;;;;;;5012682;28;20419;-49
2022/07/14 13:03:58;;;;;;;1.80;1.30;;;;;;;;;;5013426;28;20812;-51
2022/07/14 13:06:24;;;;;;;2.10;1.17;;;;;;;;;;5013182;28;20411;-51
2022/07/14 13:08:51;;;;;;;3.10;1.73;;;;;;;;;;5012825;28;20469;-50
2022/07/14 13:11:17;;;;;;;2.43;1.67;;;;;;;;;;5012770;28;20415;-49
2022/07/14 13:13:45;;;;;;;2.23;1.40;;;;;;;;;;5013135;28;20407;-49
2022/07/14 13:16:22;;;;;;;8.10;3.60;;;;;;;;;;5013243;28;20434;-51
2022/07/14 13:19:00;;;;;;;4.30;1.47;;;;;;;;;;5012943;28;20438;-49
2022/07/14 13:21:45;;;;;;;2.80;1.40;;;;;;;;;;5012696;28;20407;-48
2022/07/14 13:24:15;;;;;;;2.83;1.10;;;;;;;;;;5013163;28;20434;-49
2022/07/14 13:26:42;;;;;;;3.30;1.43;;;;;;;;;;5012714;28;20426;-49
2022/07/14 13:29:08;;;;;;;1.87;1.20;;;;;;;;;;5012649;28;20549;-49
2022/07/14 13:31:34;;;;;;;1.63;1.30;;;;;;;;;;5013270;28;20419;-49
2022/07/14 13:34:01;;;;;;;2.40;1.67;;;;;;;;;;5013062;28;20416;-50
2022/07/14 13:36:28;;;;;;;3.43;1.37;;;;;;;;;;5012450;28;20392;-48
2022/07/14 13:38:54;;;;;;;3.37;1.30;;;;;;;;;;5011735;28;20608;-47
2022/07/14 13:41:20;;;;;;;2.33;1.80;;;;;;;;;;5010930;28;20421;-48
2022/07/14 13:43:48;;;;;;;1.33;1.23;;;;;;;;;;5011937;28;20530;-49
2022/07/14 13:46:15;;;;;;;3.60;1.70;;;;;;;;;;5012707;28;20946;-48
2022/07/14 13:48:41;;;;;;;4.23;1.37;;;;;;;;;;5012421;28;20848;-47
2022/07/14 13:53:52;;;;;;;2.50;1.23;;;;;;;;;;5012854;28;20398;-48
2022/07/14 13:56:18;;;;;;;7.20;1.80;;;;;;;;;;5012456;28;20411;-47
2022/07/14 13:58:44;;;;;;;1.97;1.30;;;;;;;;;;5012126;28;20425;-48
2022/07/14 14:01:10;;;;;;;2.03;1.20;;;;;;;;;;5012278;28;20787;-47
2022/07/14 14:03:37;;;;;;;2.43;1.37;;;;;;;;;;5012459;28;20980;-48
2022/07/14 14:06:05;;;;;;;1.87;1.60;;;;;;;;;;5012348;28;20395;-47
2022/07/14 14:08:33;;;;;;;2.40;1.20;;;;;;;;;;5012215;28;20926;-47
2022/07/14 14:11:00;;;;;;;1.90;1.60;;;;;;;;;;5011937;28;20407;-46
2022/07/14 14:13:28;;;;;;;2.03;1.20;;;;;;;;;;5012506;28;20399;-47
2022/07/14 14:15:54;;;;;;;2.53;1.20;;;;;;;;;;5011741;28;20415;-49
2022/07/14 14:18:21;;;;;;;2.63;1.27;;;;;;;;;;5012181;28;20431;-47
2022/07/14 14:20:47;;;;;;;2.13;1.50;;;;;;;;;;5011238;28;20840;-48
2022/07/14 14:23:13;;;;;;;2.60;1.33;;;;;;;;;;5011159;28;20403;-50
2022/07/14 14:25:39;;;;;;;11.60;1.47;;;;;;;;;;5012028;28;20411;-47
2022/07/14 14:28:06;;;;;;;1.40;1.30;;;;;;;;;;5011912;28;20430;-52
2022/07/14 14:30:33;;;;;;;3.23;1.20;;;;;;;;;;5011630;28;20970;-48
2022/07/14 14:32:59;;;;;;;2.63;1.33;;;;;;;;;;5012421;28;20434;-48
2022/07/14 14:35:25;;;;;;;1.43;1.20;;;;;;;;;;5011954;28;20411;-48
2022/07/14 14:37:51;;;;;;;1.90;1.23;;;;;;;;;;5011851;28;20545;-50
2022/07/14 14:40:17;;;;;;;1.60;1.20;;;;;;;;;;5011153;28;20886;-50
2022/07/14 14:42:43;;;;;;;1.67;1.00;;;;;;;;;;5011923;28;20494;-49
2022/07/14 14:45:11;;;;;;;1.93;1.10;;;;;;;;;;5011682;28;20407;-50
2022/07/14 14:47:37;;;;;;;2.60;1.33;;;;;;;;;;5012626;28;20957;-50
2022/07/14 14:50:04;;;;;;;1.57;1.30;;;;;;;;;;5015961;28;20465;-50
2022/07/14 14:52:30;;;;;;;1.87;0.90;;;;;;;;;;5015921;28;20486;-49
2022/07/14 14:54:56;;;;;;;1.80;1.23;;;;;;;;;;5015821;28;20414;-49
2022/07/14 14:57:22;;;;;;;5.63;1.10;;;;;;;;;;5015716;28;20418;-49